Time;durP1;ratioP1;P1;durP2;ratioP2;P2;SDS_P1;SDS_P2;PMS_P1;PMS_P2;Temp;Humidity;BMP_temperature;BMP_pressure;BME280_temperature;BME280_humidity;BME280_pressure;Samples;Min_cycle;Max_cycle;Signal;HPM_P1;HPM_P2
2021/06/18 00:02:07;;;;;;;18.42;12.05;;;24.00;99.90;;;;;;5012090;28;20540;-62
2021/06/18 00:04:33;;;;;;;21.67;12.52;;;23.90;99.90;;;;;;5012996;28;20042;-63
2021/06/18 00:06:59;;;;;;;20.98;13.23;;;23.90;99.90;;;;;;5014425;28;20421;-64
2021/06/18 00:09:24;;;;;;;18.70;11.90;;;23.90;99.90;;;;;;5014376;28;20022;-64
2021/06/18 00:11:50;;;;;;;22.15;13.68;;;23.80;99.90;;;;;;5014580;28;20030;-64
2021/06/18 00:14:16;;;;;;;21.13;12.00;;;23.80;99.90;;;;;;5014853;28;20041;-64
2021/06/18 00:16:41;;;;;;;20.35;11.90;;;23.80;99.90;;;;;;5014796;28;20038;-64
2021/06/18 00:19:07;;;;;;;20.05;13.10;;;23.80;99.90;;;;;;5013657;28;20196;-64
2021/06/18 00:21:33;;;;;;;22.13;12.45;;;23.80;99.90;;;;;;5014270;28;20025;-65
2021/06/18 00:23:58;;;;;;;19.85;11.63;;;23.80;99.90;;;;;;5014787;28;20084;-65
2021/06/18 00:26:24;;;;;;;19.20;12.93;;;23.80;99.90;;;;;;5014493;28;20070;-65
2021/06/18 00:28:51;;;;;;;21.50;13.35;;;23.70;99.90;;;;;;5013578;28;20387;-64
2021/06/18 00:31:17;;;;;;;19.98;12.43;;;23.70;99.90;;;;;;5014358;28;20025;-64
2021/06/18 00:33:43;;;;;;;20.77;13.32;;;23.70;99.90;;;;;;5013892;28;20486;-64
2021/06/18 00:36:08;;;;;;;21.67;15.27;;;23.70;99.90;;;;;;5014210;28;20027;-65
2021/06/18 00:38:34;;;;;;;21.80;12.93;;;23.60;99.90;;;;;;5014544;28;20026;-64
2021/06/18 00:41:00;;;;;;;21.98;14.88;;;23.60;99.90;;;;;;5013458;28;20026;-64
2021/06/18 00:43:26;;;;;;;22.20;15.50;;;23.50;99.90;;;;;;5014688;28;20486;-65
2021/06/18 00:45:52;;;;;;;24.65;14.65;;;23.50;99.90;;;;;;5014013;28;20037;-64
2021/06/18 00:48:20;;;;;;;24.85;13.30;;;23.50;99.90;;;;;;5014422;28;20463;-65
2021/06/18 00:50:46;;;;;;;20.25;13.23;;;;;;;;;;5014451;28;20014;-65
2021/06/18 00:53:12;;;;;;;25.48;15.13;;;23.50;99.90;;;;;;5014419;28;20025;-64
2021/06/18 00:55:38;;;;;;;22.30;15.07;;;23.50;99.90;;;;;;5012807;28;20022;-64
2021/06/18 00:58:03;;;;;;;24.48;15.38;;;23.50;99.90;;;;;;5014314;28;20042;-64
2021/06/18 01:00:29;;;;;;;23.13;17.02;;;23.40;99.90;;;;;;5012648;28;20032;-64
2021/06/18 01:02:55;;;;;;;24.80;14.88;;;23.40;99.90;;;;;;5013983;28;20498;-64
2021/06/18 01:05:22;;;;;;;23.55;16.67;;;23.30;99.90;;;;;;5013569;28;20033;-65
2021/06/18 01:08:02;;;;;;;19.70;13.35;;;23.30;99.90;;;;;;4996499;28;20057;-65
2021/06/18 01:10:46;;;;;;;20.25;12.60;;;23.20;99.90;;;;;;5014078;28;20486;-65
2021/06/18 01:13:39;;;;;;;20.83;13.73;;;23.20;99.90;;;;;;5013874;28;20054;-65
2021/06/18 01:16:11;;;;;;;22.55;13.77;;;;;;;;;;4996023;28;20449;-65
2021/06/18 01:18:47;;;;;;;22.95;15.95;;;;;;;;;;5012540;28;20076;-65
2021/06/18 01:21:13;;;;;;;24.80;17.38;;;;;;;;;;5012581;28;20072;-65
2021/06/18 01:23:39;;;;;;;24.45;17.05;;;;;;;;;;5014257;28;20033;-65
2021/06/18 01:26:08;;;;;;;24.75;14.85;;;;;;;;;;5014664;28;20041;-66
2021/06/18 01:28:48;;;;;;;23.67;15.63;;;;;;;;;;5013627;28;20108;-65
2021/06/18 01:31:16;;;;;;;21.75;13.73;;;;;;;;;;5012542;28;20117;-64
2021/06/18 01:33:43;;;;;;;21.50;14.63;;;;;;;;;;5012245;28;20068;-65
2021/06/18 01:36:11;;;;;;;29.50;15.95;;;;;;;;;;5013194;28;20091;-65
2021/06/18 01:38:39;;;;;;;23.38;13.93;;;;;;;;;;4996127;28;20057;-64
2021/06/18 01:41:06;;;;;;;25.58;15.00;;;;;;;;;;5012209;28;20523;-66
2021/06/18 01:43:33;;;;;;;24.42;18.73;;;;;;;;;;5013050;28;20041;-65
2021/06/18 01:45:59;;;;;;;26.15;18.08;;;;;;;;;;5012110;28;20545;-64
2021/06/18 01:48:26;;;;;;;26.65;18.05;;;;;;;;;;5013290;28;20536;-65
2021/06/18 01:50:54;;;;;;;25.55;16.10;;;;;;;;;;5013280;28;20026;-65
2021/06/18 01:53:21;;;;;;;26.40;16.15;;;;;;;;;;5013203;28;20125;-65
2021/06/18 01:55:48;;;;;;;21.88;14.98;;;;;;;;;;5011603;28;20394;-65
2021/06/18 01:58:15;;;;;;;21.88;13.93;;;;;;;;;;5013064;28;20054;-65
2021/06/18 02:00:43;;;;;;;23.00;15.60;;;;;;;;;;5012964;28;20058;-64
2021/06/18 02:03:11;;;;;;;27.45;19.85;;;;;;;;;;5011784;28;20433;-65
2021/06/18 02:05:39;;;;;;;22.73;15.77;;;;;;;;;;5012616;28;20033;-65
2021/06/18 02:08:09;;;;;;;21.15;14.57;;;;;;;;;;5012946;28;20034;-65
2021/06/18 02:10:37;;;;;;;21.83;15.52;;;;;;;;;;5011621;28;20037;-65
2021/06/18 02:13:07;;;;;;;25.33;18.42;;;;;;;;;;5011459;28;20109;-63
2021/06/18 02:15:35;;;;;;;24.38;18.17;;;;;;;;;;5012520;28;20029;-64
2021/06/18 02:18:01;;;;;;;23.55;15.18;;;;;;;;;;5011535;28;20026;-63
2021/06/18 02:20:28;;;;;;;23.42;14.68;;;;;;;;;;5012675;28;20041;-63
2021/06/18 02:22:54;;;;;;;25.45;15.35;;;;;;;;;;5011408;28;20029;-63
2021/06/18 02:25:20;;;;;;;23.92;15.63;;;;;;;;;;5012229;28;20053;-63
2021/06/18 02:27:47;;;;;;;23.00;15.75;;;;;;;;;;5012618;28;20056;-63
2021/06/18 02:30:14;;;;;;;24.25;15.40;;;;;;;;;;5012517;28;20438;-63
2021/06/18 02:32:40;;;;;;;23.58;14.85;;;;;;;;;;5012475;28;20033;-64
2021/06/18 02:35:07;;;;;;;25.00;14.50;;;23.10;99.90;;;;;;5012164;28;20481;-63
2021/06/18 02:37:32;;;;;;;21.73;15.60;;;22.30;99.90;;;;;;5012316;28;20026;-65
2021/06/18 02:39:59;;;;;;;21.67;15.63;;;22.20;99.90;;;;;;5011126;28;20072;-64
2021/06/18 02:42:25;;;;;;;22.48;16.25;;;22.20;99.90;;;;;;5012403;28;20022;-64
2021/06/18 02:44:52;;;;;;;21.95;14.73;;;;;;;;;;5012033;28;20072;-64
2021/06/18 02:47:30;;;;;;;25.23;15.05;;;;;;;;;;5010980;28;20037;-64
2021/06/18 02:50:02;;;;;;;23.35;15.07;;;;;;;;;;5010960;28;20029;-64
2021/06/18 02:52:42;;;;;;;21.85;15.23;;;;;;;;;;5012200;28;20513;-64
2021/06/18 02:55:18;;;;;;;25.38;15.23;;;;;;;;;;5011458;28;20510;-64
2021/06/18 02:57:55;;;;;;;21.48;14.40;;;;;;;;;;5012367;28;20099;-64
2021/06/18 03:00:22;;;;;;;22.33;16.10;;;;;;;;;;5012304;28;20163;-64
2021/06/18 03:02:54;;;;;;;22.90;15.18;;;;;;;;;;5012301;28;20110;-64
2021/06/18 03:05:22;;;;;;;23.95;15.95;;;;;;;;;;5011879;28;20116;-64
2021/06/18 03:08:15;;;;;;;27.52;16.10;;;;;;;;;;4994735;28;20490;-63
2021/06/18 03:10:41;;;;;;;22.20;14.75;;;;;;;;;;5010305;28;20052;-64
2021/06/18 03:13:13;;;;;;;24.13;16.02;;;;;;;;;;5011081;28;20026;-64
2021/06/18 03:15:42;;;;;;;24.23;16.95;;;;;;;;;;5011686;28;20033;-63
2021/06/18 03:18:09;;;;;;;24.40;16.50;;;;;;;;;;5011893;28;20026;-64
2021/06/18 03:20:35;;;;;;;24.05;15.45;;;;;;;;;;5012130;28;20057;-64
2021/06/18 03:23:03;;;;;;;22.73;15.07;;;;;;;;;;4994577;28;20034;-64
2021/06/18 03:25:32;;;;;;;21.58;14.32;;;;;;;;;;5010512;28;20058;-63
2021/06/18 03:27:58;;;;;;;24.83;14.77;;;;;;;;;;5012042;28;20109;-64
2021/06/18 03:30:25;;;;;;;21.73;14.23;;;;;;;;;;5011579;28;20482;-63
2021/06/18 03:32:52;;;;;;;22.02;14.55;;;;;;;;;;5010388;28;20107;-63
2021/06/18 03:35:19;;;;;;;23.40;13.75;;;;;;;;;;5011707;28;20026;-64
2021/06/18 03:37:46;;;;;;;23.83;14.75;;;;;;;;;;5011712;28;20022;-64
2021/06/18 03:40:12;;;;;;;23.80;15.55;;;;;;;;;;5011334;28;20022;-64
2021/06/18 03:42:38;;;;;;;23.05;14.48;;;;;;;;;;5011662;28;20026;-64
2021/06/18 03:45:06;;;;;;;21.60;14.10;;;;;;;;;;5011332;28;20030;-63
2021/06/18 03:47:33;;;;;;;20.65;14.20;;;;;;;;;;5011632;28;20109;-64
2021/06/18 03:49:59;;;;;;;22.98;14.48;;;;;;;;;;5011429;28;20029;-64
2021/06/18 03:52:25;;;;;;;21.73;14.77;;;;;;;;;;5011630;28;20026;-64
2021/06/18 03:54:51;;;;;;;23.33;15.05;;;;;;;;;;5011370;28;20528;-64
2021/06/18 03:57:18;;;;;;;21.67;14.52;;;;;;;;;;5010051;28;20116;-64
2021/06/18 03:59:45;;;;;;;24.85;14.90;;;;;;;;;;5011511;28;20099;-65
2021/06/18 04:02:14;;;;;;;24.75;15.52;;;;;;;;;;5010327;28;20129;-66
2021/06/18 04:04:40;;;;;;;22.70;15.10;;;;;;;;;;5011453;28;20049;-65
2021/06/18 04:07:07;;;;;;;24.50;14.73;;;;;;;;;;5013224;28;20030;-65
2021/06/18 04:09:33;;;;;;;22.90;15.27;;;;;;;;;;5015275;28;20100;-65
2021/06/18 04:12:00;;;;;;;20.92;14.57;;;;;;;;;;5015110;28;20040;-65
2021/06/18 04:14:27;;;;;;;21.17;15.07;;;;;;;;;;5014754;28;20026;-65
2021/06/18 04:16:54;;;;;;;23.48;15.02;;;;;;;;;;5014708;28;20034;-65
2021/06/18 04:19:20;;;;;;;24.98;16.70;;;;;;;;;;5013435;28;20030;-65
2021/06/18 04:21:46;;;;;;;23.48;15.52;;;;;;;;;;5015001;28;20449;-65
2021/06/18 04:24:15;;;;;;;25.98;19.02;;;;;;;;;;5013338;28;20026;-65
2021/06/18 04:26:42;;;;;;;24.48;15.32;;;;;;;;;;5014680;28;20072;-65
2021/06/18 04:29:08;;;;;;;24.15;15.48;;;;;;;;;;5013536;28;20080;-65
2021/06/18 04:31:35;;;;;;;22.45;16.23;;;22.10;99.90;;;;;;5014712;28;20144;-65
2021/06/18 04:34:01;;;;;;;23.73;15.55;;;22.70;99.90;;;;;;5013428;28;20037;-65
2021/06/18 04:36:27;;;;;;;24.00;15.40;;;22.80;99.90;;;;;;5014531;28;20319;-65
2021/06/18 04:38:52;;;;;;;23.73;15.55;;;22.80;99.90;;;;;;5013290;28;20099;-65
2021/06/18 04:41:18;;;;;;;22.38;17.17;;;22.80;99.90;;;;;;5014331;28;20489;-65
2021/06/18 04:43:43;;;;;;;23.73;15.07;;;22.90;99.90;;;;;;5013310;28;20117;-65
2021/06/18 04:46:09;;;;;;;24.55;14.70;;;22.90;99.90;;;;;;5013999;28;20030;-65
2021/06/18 04:48:35;;;;;;;27.17;15.60;;;23.00;99.90;;;;;;5013165;28;20066;-65
2021/06/18 04:51:01;;;;;;;20.92;14.45;;;23.00;99.90;;;;;;5014315;28;20052;-66
2021/06/18 04:53:27;;;;;;;20.83;15.05;;;23.10;99.90;;;;;;5014193;28;20034;-65
2021/06/18 04:55:52;;;;;;;22.00;14.63;;;23.20;99.90;;;;;;5013923;28;20018;-65
2021/06/18 04:58:19;;;;;;;23.30;14.70;;;23.20;99.90;;;;;;5012689;28;20026;-65
2021/06/18 05:00:45;;;;;;;25.75;14.70;;;23.30;99.90;;;;;;5012811;28;20037;-64
2021/06/18 05:03:10;;;;;;;24.60;16.17;;;23.30;99.90;;;;;;5014272;28;20021;-65
2021/06/18 05:05:36;;;;;;;24.20;15.18;;;23.40;99.90;;;;;;4995900;28;20403;-64
2021/06/18 05:08:02;;;;;;;23.38;14.57;;;23.40;99.90;;;;;;5012704;28;20108;-65
2021/06/18 05:10:27;;;;;;;21.52;14.30;;;23.40;99.90;;;;;;5012095;28;20037;-65
2021/06/18 05:12:53;;;;;;;21.48;14.50;;;23.50;99.90;;;;;;5012315;28;20030;-64
2021/06/18 05:15:19;;;;;;;21.15;14.38;;;23.50;99.90;;;;;;5013193;28;20029;-64
2021/06/18 05:17:45;;;;;;;22.40;13.60;;;23.60;99.90;;;;;;5013089;28;20027;-65
2021/06/18 05:20:12;;;;;;;21.65;13.77;;;23.60;99.90;;;;;;5013470;28;20021;-65
2021/06/18 05:22:38;;;;;;;25.95;16.83;;;23.60;99.90;;;;;;5013270;28;20560;-65
2021/06/18 05:25:05;;;;;;;20.00;14.82;;;23.60;99.90;;;;;;5013047;28;20026;-66
2021/06/18 05:27:30;;;;;;;20.60;13.80;;;23.60;99.90;;;;;;5013580;28;20569;-66
2021/06/18 05:29:56;;;;;;;23.10;14.35;;;23.70;99.90;;;;;;5011957;28;20116;-66
2021/06/18 05:32:21;;;;;;;22.92;14.18;;;23.80;99.90;;;;;;5013492;28;20030;-66
2021/06/18 05:34:47;;;;;;;23.77;14.02;;;23.90;99.90;;;;;;5013252;28;20381;-65
2021/06/18 05:37:13;;;;;;;21.80;14.25;;;24.00;99.90;;;;;;5013226;28;20037;-62
2021/06/18 05:39:41;;;;;;;21.80;13.27;;;24.00;99.90;;;;;;5012690;28;20036;-63
2021/06/18 05:42:09;;;;;;;23.87;13.93;;;24.10;99.90;;;;;;5012488;28;20030;-65
2021/06/18 05:44:35;;;;;;;23.45;13.18;;;24.10;99.90;;;;;;5011130;28;20276;-65
2021/06/18 05:47:00;;;;;;;21.10;13.55;;;24.20;99.90;;;;;;5012744;28;20034;-65
2021/06/18 05:49:26;;;;;;;23.40;13.43;;;24.10;99.90;;;;;;5012362;28;20034;-64
2021/06/18 05:51:51;;;;;;;20.42;12.93;;;24.20;99.90;;;;;;5012843;28;20421;-63
2021/06/18 05:54:17;;;;;;;19.67;12.02;;;24.20;99.90;;;;;;5012294;28;20026;-64
2021/06/18 05:56:43;;;;;;;22.08;13.13;;;24.30;99.90;;;;;;5011286;28;20028;-63
2021/06/18 05:59:08;;;;;;;23.05;13.88;;;24.30;99.90;;;;;;5012431;28;20026;-65
2021/06/18 06:01:34;;;;;;;22.85;12.30;;;24.30;99.90;;;;;;5012636;28;20083;-62
2021/06/18 06:04:00;;;;;;;18.95;12.23;;;24.30;99.90;;;;;;5012521;28;20021;-63
2021/06/18 06:06:26;;;;;;;22.20;12.73;;;24.40;99.90;;;;;;5068204;22;20059;-62
2021/06/18 06:08:53;;;;;;;20.50;12.48;;;24.50;99.90;;;;;;5094434;28;20332;-63
2021/06/18 06:11:21;;;;;;;22.50;15.48;;;24.50;99.90;;;;;;5113241;28;20012;-63
2021/06/18 06:13:46;;;;;;;19.80;13.70;;;24.60;99.90;;;;;;5094495;28;20165;-61
2021/06/18 06:16:12;;;;;;;20.75;12.88;;;24.40;99.90;;;;;;5094141;28;20478;-63
2021/06/18 06:18:38;;;;;;;20.67;13.23;;;24.50;99.90;;;;;;5112880;28;20522;-61
2021/06/18 06:21:04;;;;;;;22.40;12.82;;;24.60;99.90;;;;;;5112756;28;20475;-63
2021/06/18 06:23:30;;;;;;;20.50;13.55;;;24.70;99.90;;;;;;5094595;28;20106;-63
2021/06/18 06:25:55;;;;;;;23.05;13.70;;;24.60;99.90;;;;;;5112494;28;20051;-63
2021/06/18 06:28:21;;;;;;;22.58;13.15;;;24.80;99.90;;;;;;5112786;28;20028;-63
2021/06/18 06:30:47;;;;;;;22.13;13.25;;;24.90;99.90;;;;;;5111407;28;20059;-63
2021/06/18 06:33:13;;;;;;;21.85;13.70;;;25.00;99.90;;;;;;5112869;28;20084;-63
2021/06/18 06:35:39;;;;;;;22.65;13.55;;;25.00;99.90;;;;;;5093707;28;20059;-61
2021/06/18 06:38:04;;;;;;;18.88;12.85;;;25.00;99.90;;;;;;5094175;28;20576;-64
2021/06/18 06:40:30;;;;;;;22.30;13.27;;;25.10;99.90;;;;;;5110380;28;20043;-63
2021/06/18 06:42:56;;;;;;;20.58;12.65;;;25.10;99.90;;;;;;5109284;28;20019;-61
2021/06/18 06:45:23;;;;;;;21.80;13.98;;;25.20;99.90;;;;;;5111685;28;20034;-63
2021/06/18 06:47:50;;;;;;;21.10;13.00;;;25.20;99.90;;;;;;5093862;28;20031;-64
2021/06/18 06:50:17;;;;;;;21.88;13.80;;;25.10;99.90;;;;;;5100448;28;20028;-64
2021/06/18 06:52:43;;;;;;;21.20;12.90;;;25.10;99.90;;;;;;5091613;28;20399;-63
2021/06/18 06:55:10;;;;;;;20.92;11.52;;;25.20;99.90;;;;;;5073188;28;20081;-63
2021/06/18 06:57:35;;;;;;;17.55;11.10;;;25.30;99.90;;;;;;5074827;28;20051;-62
2021/06/18 07:00:01;;;;;;;19.38;11.32;;;25.40;99.90;;;;;;5084613;28;20466;-62
2021/06/18 07:02:27;;;;;;;18.35;11.85;;;25.50;99.90;;;;;;5091629;28;20023;-62
2021/06/18 07:04:52;;;;;;;19.80;12.10;;;25.60;99.90;;;;;;5073577;28;20020;-58
2021/06/18 07:07:18;;;;;;;18.13;11.48;;;25.70;99.90;;;;;;5091187;28;20460;-65
2021/06/18 07:09:44;;;;;;;18.50;12.02;;;25.70;99.90;;;;;;5091971;28;20035;-62
2021/06/18 07:12:10;;;;;;;19.77;12.07;;;25.70;99.90;;;;;;5091380;28;20024;-60
2021/06/18 07:14:38;;;;;;;19.98;11.85;;;25.60;99.90;;;;;;5091469;28;20028;-65
2021/06/18 07:17:04;;;;;;;20.33;12.13;;;25.70;99.90;;;;;;5093137;28;20051;-63
2021/06/18 07:19:30;;;;;;;19.35;12.13;;;25.70;99.90;;;;;;5112021;28;20474;-61
2021/06/18 07:21:56;;;;;;;19.42;13.07;;;25.80;99.90;;;;;;5111954;28;20464;-57
2021/06/18 07:24:21;;;;;;;25.48;13.18;;;25.80;99.90;;;;;;5112081;28;20020;-63
2021/06/18 07:26:47;;;;;;;18.92;11.80;;;25.60;99.90;;;;;;5112198;28;20051;-66
2021/06/18 07:29:13;;;;;;;19.98;13.00;;;25.70;99.90;;;;;;5093833;28;20023;-63
2021/06/18 07:31:39;;;;;;;21.42;12.85;;;25.70;99.90;;;;;;5094255;28;20096;-63
2021/06/18 07:34:06;;;;;;;18.73;13.00;;;25.80;99.90;;;;;;5093709;28;20027;-59
2021/06/18 07:36:32;;;;;;;20.83;13.48;;;25.90;99.90;;;;;;5093160;28;20024;-60
2021/06/18 07:38:58;;;;;;;20.80;12.75;;;26.00;99.90;;;;;;5112168;28;20382;-59
2021/06/18 07:41:23;;;;;;;20.65;13.45;;;26.00;99.90;;;;;;5112622;28;20035;-54
2021/06/18 07:43:49;;;;;;;22.52;13.77;;;26.10;99.90;;;;;;5115940;28;20024;-56
2021/06/18 07:46:15;;;;;;;19.38;13.43;;;26.00;99.90;;;;;;5097500;28;20019;-57
2021/06/18 07:48:40;;;;;;;22.27;13.48;;;26.00;99.90;;;;;;5096790;28;20074;-58
2021/06/18 07:51:07;;;;;;;18.88;13.20;;;26.20;99.90;;;;;;5097632;28;20114;-57
2021/06/18 07:53:34;;;;;;;21.20;14.07;;;26.30;99.90;;;;;;5115540;28;20024;-58
2021/06/18 07:55:59;;;;;;;20.00;13.35;;;26.40;99.90;;;;;;5115078;28;20152;-59
2021/06/18 07:58:25;;;;;;;21.23;14.75;;;26.40;99.90;;;;;;5115253;28;20066;-59
2021/06/18 08:00:50;;;;;;;17.67;13.30;;;26.40;99.90;;;;;;5115472;28;20026;-60
2021/06/18 08:03:16;;;;;;;21.52;13.70;;;26.40;99.90;;;;;;5097253;28;20472;-59
2021/06/18 08:05:42;;;;;;;19.92;14.05;;;26.40;99.90;;;;;;5114714;28;20022;-58
2021/06/18 08:08:08;;;;;;;20.27;14.95;;;26.50;99.90;;;;;;5096561;28;20395;-60
2021/06/18 08:10:34;;;;;;;20.55;16.15;;;26.70;99.90;;;;;;5115167;28;20027;-60
2021/06/18 08:13:00;;;;;;;22.55;13.57;;;26.50;99.90;;;;;;5114769;28;20078;-60
2021/06/18 08:15:26;;;;;;;20.08;13.25;;;26.70;99.90;;;;;;5112986;28;20487;-59
2021/06/18 08:17:51;;;;;;;19.95;14.45;;;26.70;99.90;;;;;;5077020;28;20338;-60
2021/06/18 08:20:20;;;;;;;19.80;12.95;;;26.70;99.90;;;;;;5076375;28;20020;-59
2021/06/18 08:22:46;;;;;;;20.00;13.88;;;26.60;99.90;;;;;;5094488;28;20020;-59
2021/06/18 08:25:12;;;;;;;21.52;14.90;;;26.60;99.90;;;;;;5094284;28;20484;-59
2021/06/18 08:27:38;;;;;;;23.88;13.85;;;26.60;99.90;;;;;;5094057;28;20047;-56
2021/06/18 08:30:05;;;;;;;19.50;14.20;;;26.80;99.90;;;;;;5076075;28;20054;-57
2021/06/18 08:32:30;;;;;;;22.30;15.13;;;26.80;99.90;;;;;;5100728;28;20116;-59
2021/06/18 08:34:56;;;;;;;20.90;13.82;;;26.60;99.90;;;;;;5114500;28;20066;-59
2021/06/18 08:37:22;;;;;;;21.13;13.98;;;26.80;99.90;;;;;;5096192;28;20019;-59
2021/06/18 08:39:47;;;;;;;21.33;15.48;;;26.90;99.90;;;;;;5114874;28;20032;-60
2021/06/18 08:42:13;;;;;;;22.35;15.48;;;27.00;99.90;;;;;;5114718;28;20026;-59
2021/06/18 08:44:39;;;;;;;22.42;15.23;;;27.00;99.90;;;;;;5096018;28;20065;-59
2021/06/18 08:47:05;;;;;;;21.52;16.48;;;27.20;99.90;;;;;;5114247;28;20023;-59
2021/06/18 08:49:31;;;;;;;22.45;17.20;;;27.30;99.90;;;;;;5114099;28;20035;-60
2021/06/18 08:51:56;;;;;;;22.73;15.65;;;27.40;99.90;;;;;;5095203;28;20028;-60
2021/06/18 08:54:41;;;;;;;21.13;15.10;;;27.50;99.90;;;;;;5074518;28;20059;-60
2021/06/18 08:57:07;;;;;;;24.05;16.73;;;27.70;99.90;;;;;;5093823;28;20024;-59
2021/06/18 08:59:33;;;;;;;24.55;17.65;;;28.00;99.90;;;;;;5075776;28;20021;-59
2021/06/18 09:01:59;;;;;;;21.38;16.23;;;27.80;99.90;;;;;;5094060;28;20596;-59
2021/06/18 09:04:24;;;;;;;21.73;16.85;;;28.10;99.90;;;;;;5075398;28;20518;-58
2021/06/18 09:06:58;;;;;;;24.73;18.00;;;28.30;99.90;;;;;;5093189;28;20042;-54
2021/06/18 09:09:25;;;;;;;27.25;17.70;;;28.10;99.90;;;;;;5093749;28;20093;-58
2021/06/18 09:11:53;;;;;;;22.00;17.70;;;28.30;99.90;;;;;;5074787;28;20020;-57
2021/06/18 09:14:24;;;;;;;21.80;16.38;;;28.10;99.90;;;;;;5093050;28;20562;-52
2021/06/18 09:17:11;;;;;;;27.45;18.05;;;27.70;99.90;;;;;;5093238;28;20395;-55
2021/06/18 09:20:10;;;;;;;26.20;17.65;;;27.60;99.90;;;;;;5075152;28;20047;-54
2021/06/18 09:22:36;;;;;;;21.98;16.13;;;27.90;99.90;;;;;;5089836;28;20036;-55
2021/06/18 09:25:09;;;;;;;21.48;17.10;;;27.70;99.90;;;;;;5093081;28;20012;-54
2021/06/18 09:27:41;;;;;;;23.75;17.08;;;27.70;99.90;;;;;;5093210;28;20024;-56
2021/06/18 09:30:30;;;;;;;23.00;18.50;;;27.90;99.90;;;;;;5093493;28;20384;-55
2021/06/18 09:33:03;;;;;;;22.52;16.40;;;28.10;99.90;;;;;;5093049;28;20028;-51
2021/06/18 09:35:29;;;;;;;23.95;17.90;;;28.50;99.90;;;;;;5093083;28;20468;-58
2021/06/18 09:38:02;;;;;;;24.58;17.52;;;28.80;99.90;;;;;;5093172;28;20413;-57
2021/06/18 09:40:28;;;;;;;21.75;17.70;;;28.80;99.90;;;;;;5093484;28;20153;-57
2021/06/18 09:42:57;;;;;;;25.25;18.98;;;29.10;99.90;;;;;;5098013;28;20030;-49
2021/06/18 09:45:26;;;;;;;22.10;18.35;;;29.00;99.90;;;;;;5113166;28;20071;-56
2021/06/18 09:48:07;;;;;;;24.65;19.92;;;29.20;99.90;;;;;;5113033;28;20028;-57
2021/06/18 09:50:32;;;;;;;22.40;17.90;;;29.10;99.90;;;;;;5095519;28;20027;-57
2021/06/18 09:53:22;;;;;;;23.52;18.52;;;28.90;99.90;;;;;;5113568;28;20031;-53
2021/06/18 09:56:01;;;;;;;21.60;17.17;;;28.70;99.90;;;;;;5112771;28;20027;-50
2021/06/18 09:58:40;;;;;;;22.20;16.85;;;28.80;99.90;;;;;;5095287;28;20038;-56
2021/06/18 10:01:24;;;;;;;23.15;17.40;;;28.60;99.90;;;;;;5113554;28;20027;-58
2021/06/18 10:04:02;;;;;;;23.77;16.95;;;29.00;99.90;;;;;;5113240;28;20026;-58
2021/06/18 10:06:32;;;;;;;20.92;16.35;;;29.40;99.90;;;;;;5113068;28;20032;-58
2021/06/18 10:09:00;;;;;;;22.40;16.60;;;29.50;99.90;;;;;;5113041;28;20042;-54
2021/06/18 10:11:27;;;;;;;22.10;16.60;;;29.40;99.90;;;;;;5113204;28;20020;-56
2021/06/18 10:13:54;;;;;;;25.50;18.33;;;29.50;99.90;;;;;;5113240;28;20153;-58
2021/06/18 10:16:22;;;;;;;24.17;17.23;;;29.90;99.90;;;;;;5112804;28;20069;-53
2021/06/18 10:18:48;;;;;;;20.63;16.85;;;30.50;99.90;;;;;;5112881;28;20107;-58
2021/06/18 10:21:16;;;;;;;20.08;17.85;;;31.10;99.90;;;;;;5112782;28;20027;-58
2021/06/18 10:23:43;;;;;;;21.73;17.23;;;31.60;99.90;;;;;;5094696;28;20364;-58
2021/06/18 10:26:12;;;;;;;23.50;15.93;;;31.40;99.90;;;;;;5112318;28;20015;-58
2021/06/18 10:28:38;;;;;;;22.05;16.98;;;31.70;99.90;;;;;;5112897;28;20471;-56
2021/06/18 10:31:07;;;;;;;20.77;16.63;;;32.10;99.10;;;;;;5094474;28;20113;-56
2021/06/18 10:33:40;;;;;;;20.98;15.77;;;32.00;99.00;;;;;;5094069;28;20028;-59
2021/06/18 10:36:06;;;;;;;21.98;16.20;;;31.50;98.00;;;;;;5112331;28;20391;-59
2021/06/18 10:38:38;;;;;;;20.92;16.30;;;31.70;98.00;;;;;;5094433;28;20073;-50
2021/06/18 10:41:24;;;;;;;23.15;16.42;;;31.60;98.20;;;;;;5112683;28;20024;-56
2021/06/18 10:43:51;;;;;;;20.63;15.77;;;31.40;97.90;;;;;;5094424;28;20028;-57
2021/06/18 10:46:17;;;;;;;24.90;16.20;;;31.50;97.30;;;;;;5093507;28;20111;-55
2021/06/18 10:48:54;;;;;;;21.15;15.10;;;31.80;97.00;;;;;;5111634;28;20024;-55
2021/06/18 10:51:28;;;;;;;20.23;16.60;;;31.90;97.50;;;;;;5093197;28;20043;-56
2021/06/18 10:54:04;;;;;;;21.23;17.33;;;31.70;98.00;;;;;;5111578;28;20016;-59
2021/06/18 10:56:46;;;;;;;21.00;16.60;;;31.60;98.40;;;;;;5093479;28;20031;-53
2021/06/18 10:59:15;;;;;;;21.88;17.52;;;32.00;98.10;;;;;;5111967;28;20387;-54
2021/06/18 11:01:41;;;;;;;21.75;17.55;;;31.10;98.60;;;;;;5111786;28;20106;-51
2021/06/18 11:04:07;;;;;;;20.60;16.42;;;31.70;98.50;;;;;;5112077;28;20039;-55
2021/06/18 11:06:43;;;;;;;22.77;17.65;;;31.90;98.30;;;;;;5111507;28;20081;-51
2021/06/18 11:09:09;;;;;;;20.65;16.67;;;32.40;98.60;;;;;;5110596;28;20027;-56
2021/06/18 11:11:35;;;;;;;19.77;16.83;;;32.50;97.30;;;;;;5103666;28;20035;-55
2021/06/18 11:14:06;;;;;;;21.55;17.05;;;32.00;97.60;;;;;;5090313;28;20080;-56
2021/06/18 11:16:37;;;;;;;24.33;16.90;;;31.90;97.30;;;;;;5088859;28;20063;-53
2021/06/18 11:19:26;;;;;;;21.58;16.70;;;32.30;98.10;;;;;;5094309;28;20019;-56
2021/06/18 11:21:53;;;;;;;21.27;17.00;;;32.40;97.50;;;;;;5113179;28;20501;-56
2021/06/18 11:24:47;;;;;;;20.30;16.30;;;32.50;96.60;;;;;;5094687;28;20505;-55
2021/06/18 11:27:20;;;;;;;19.92;16.15;;;32.10;96.70;;;;;;5110442;28;20055;-55
2021/06/18 11:29:46;;;;;;;22.38;16.00;;;31.80;97.00;;;;;;5113052;28;20035;-51
2021/06/18 11:32:45;;;;;;;21.65;16.70;;;31.90;97.20;;;;;;5113291;28;20069;-51
2021/06/18 11:35:32;;;;;;;20.50;16.08;;;31.40;97.10;;;;;;5112842;28;20035;-57
2021/06/18 11:38:09;;;;;;;23.10;17.40;;;31.40;97.80;;;;;;5111564;28;20036;-54
2021/06/18 11:40:35;;;;;;;22.65;16.77;;;31.70;97.10;;;;;;5102437;28;20080;-53
2021/06/18 11:43:01;;;;;;;20.15;15.40;;;31.10;97.60;;;;;;5090555;28;20058;-51
2021/06/18 11:45:36;;;;;;;21.45;15.50;;;31.30;97.10;;;;;;5105297;28;20165;-54
2021/06/18 11:48:02;;;;;;;23.73;15.55;;;31.30;97.20;;;;;;5086090;28;20027;-54
2021/06/18 11:50:37;;;;;;;19.33;15.48;;;31.00;96.90;;;;;;5103262;28;20525;-54
2021/06/18 11:53:03;;;;;;;21.40;16.08;;;31.00;98.00;;;;;;5086436;28;20035;-55
2021/06/18 11:55:29;;;;;;;19.92;15.75;;;31.20;97.10;;;;;;5105272;28;20032;-53
2021/06/18 11:57:55;;;;;;;20.63;15.27;;;31.00;97.30;;;;;;5106456;28;20391;-54
2021/06/18 12:00:31;;;;;;;25.13;15.88;;;31.50;98.00;;;;;;5085283;28;20106;-54
2021/06/18 12:02:58;;;;;;;21.10;15.32;;;31.70;97.60;;;;;;5098350;28;20098;-55
2021/06/18 12:05:30;;;;;;;19.27;15.85;;;31.90;97.20;;;;;;5098407;28;20031;-57
2021/06/18 12:07:56;;;;;;;22.55;16.83;;;31.60;96.30;;;;;;5079354;22;20052;-62
2021/06/18 12:10:29;;;;;;;20.52;16.13;;;31.70;96.10;;;;;;4701646;28;9999767;-62
2021/06/18 12:12:57;;;;;;;20.45;16.55;;;31.90;96.40;;;;;;5048195;28;20484;-61
2021/06/18 12:15:26;;;;;;;;;;;31.80;96.60;;;;;;5052169;28;20098;-62
2021/06/18 12:18:04;;;;;;;24.85;16.63;;;31.60;96.10;;;;;;5067350;28;19916;-63
2021/06/18 12:20:39;;;;;;;19.92;16.10;;;31.50;97.20;;;;;;5072277;28;20024;-63
2021/06/18 12:23:07;;;;;;;21.25;16.13;;;31.20;97.90;;;;;;5071802;28;20486;-62
2021/06/18 12:25:34;;;;;;;20.50;16.55;;;31.60;98.00;;;;;;5070267;28;20028;-62
2021/06/18 12:28:01;;;;;;;21.10;16.45;;;31.90;97.70;;;;;;5067423;28;20028;-64
2021/06/18 12:30:32;;;;;;;22.85;16.33;;;32.00;97.30;;;;;;5070325;28;20028;-62
2021/06/18 12:32:59;;;;;;;24.58;16.67;;;31.70;97.80;;;;;;5070896;28;20365;-61
2021/06/18 12:35:41;;;;;;;23.17;16.60;;;31.70;97.70;;;;;;5070573;28;20096;-62
2021/06/18 12:38:09;;;;;;;20.85;17.02;;;31.60;98.20;;;;;;5069663;28;20071;-62
2021/06/18 12:40:38;;;;;;;20.75;16.63;;;31.70;98.30;;;;;;5071101;28;20031;-60
2021/06/18 12:43:20;;;;;;;27.10;17.67;;;32.00;98.10;;;;;;5069881;28;20078;-63
2021/06/18 12:46:06;;;;;;;23.80;17.30;;;32.30;97.50;;;;;;5067059;28;20028;-61
2021/06/18 12:48:52;;;;;;;21.27;16.58;;;32.80;97.30;;;;;;5070578;28;20040;-62
2021/06/18 12:51:19;;;;;;;23.15;16.38;;;;;;;;;;5066196;28;20090;-63
2021/06/18 12:57:28;;;;;;;21.48;17.02;;;35.80;95.50;;;;;;4677508;28;10001570;-63
2021/06/18 13:00:16;;;;;;;22.08;15.60;;;36.00;93.90;;;;;;5069907;28;20024;-63
2021/06/18 13:02:41;;;;;;;22.60;16.17;;;36.90;93.70;;;;;;5070992;28;20107;-63